Webkamera Lisätietoa Webcam


Yksityisiä sääasemia lähellä:

Sääasema Juupajoki

Sääasema Orivesi

Sääasema Muurame

Sääasema Jyväskylä

Sääasema Vihtavuori


Löydät sääaseman tiedot myös:

Finland Weather Exchange

European Weather Network

Weather Underground

AWEKAS

Windy.com



Säätiedot lähimmiltä METAR asemilta

   
EFHA - Halli (Fin-Afb), Finland
Etäisyys asemalta: Kaakko 25 km
Päivitetty: 24.10.2021 22:20
Heikkoa sadetta, Pilvistä  
Heikkoa sadetta, Pilvistä  
   Tuuli: Eteläkaakko 4.6 m/s
Tuuli: Eteläkaakko 4.6 m/s
Lämpötila: 1°C
Tuulen hyytävyys: -3°C
Kastepiste: 1°C
Kosteus: 100%
Ilmanpaine: 1015 hPa
Pilvisyys: Pilvistä
Näkyvyys: Enemmän kuin 10 km
Pilvitiedot: Pilvistä 91 m
EFHA 241920Z AUTO 16009KT 9999 -RA OVC003 01/01 Q1015
EFJY - Jyvaskyla (Mil/Civ), Finland
Etäisyys asemalta: Koillinen 75 km
Päivitetty: 24.10.2021 22:20
Heikkoa sadetta, Pilvistä  
Heikkoa sadetta, Pilvistä  
   Tuuli: Eteläkaakko 5.1 m/s
Tuuli: Eteläkaakko 5.1 m/s
Lämpötila: 0°C
Tuulen hyytävyys: -5°C
Kastepiste: 0°C
Kosteus: 100%
Ilmanpaine: 1016 hPa
Pilvisyys: Pilvistä
Näkyvyys: 6 km
Pilvitiedot: Pilvistä 122 m
EFJY 241920Z AUTO 16010KT 6000 -RA OVC004 00/M00 Q1016
EFTP - Tampere/Pirkkala, Finland
Etäisyys asemalta: Lounas 81 km
Päivitetty: 24.10.2021 22:20
Heikkoja sadekuuroja, Sade, Pilvistä  
Heikkoja sadekuuroja, Sade, Pilvistä  
   Tuuli: Eteläkaakko 3.6 m/s
Tuuli: Eteläkaakko 3.6 m/s
Lämpötila: 3°C
Tuulen hyytävyys: -1°C
Kastepiste: 3°C
Kosteus: 100%
Ilmanpaine: 1015 hPa
Pilvisyys: Pilvistä
Näkyvyys: 8 km
Pilvitiedot: Pilvistä 61 m
EFTP 241920Z AUTO 16007KT 8000 -SHRA OVC002 03/03 Q1015
EFSI - Seinajoki-Ilmajoki, Finland
Etäisyys asemalta: Luode 114 km
Päivitetty: 24.10.2021 22:20
Pilvistä  
Pilvistä  
   Tuuli: Kaakko 4.6 m/s
Tuuli: Kaakko 4.6 m/s
Lämpötila: 1°C
Tuulen hyytävyys: -3°C
Kastepiste: 1°C
Kosteus: 100%
Ilmanpaine: 1012 hPa
Pilvisyys: Pilvistä
Näkyvyys: Enemmän kuin 10 km
Pilvitiedot: Pilvistä 91 m
EFSI 241920Z AUTO 14009KT 9999 OVC003 01/01 Q1012
EFMI - Mikkeli, Finland
Etäisyys asemalta: Itäkaakko 147 km
Päivitetty: 24.10.2021 22:20
Heikkoa jäätävää sadetta, Tihkusadetta, Lumisadetta, Pilvistä  
Heikkoa jäätävää sadetta, Tihkusadetta, Lumisadetta, Pilvistä  
   Tuuli: Eteläkaakko 3.6 m/s
Tuuli: Eteläkaakko 3.6 m/s
Lämpötila: 0°C
Tuulen hyytävyys: -4°C
Kastepiste: -1°C
Kosteus: 93%
Ilmanpaine: 1019 hPa
Pilvisyys: Pilvistä
Näkyvyys: 9 km
Pilvitiedot: Vähäistä pilvisyyttä 244 m,
Pilvistä 853 m
EFMI 241920Z AUTO 15007KT 120V180 9000 -FZDZSN FEW008 OVC028 M00/M01 Q1019
EFPO - Pori (Mil/Civ), Finland
Etäisyys asemalta: Länsilounas 154 km
Päivitetty: 24.10.2021 22:20
Pilvistä  
Pilvistä  
   Tuuli: Etelä 3.6 m/s
Tuuli: Etelä 3.6 m/s
Lämpötila: 8°C
Tuulen hyytävyys: 6°C
Kastepiste: 7°C
Kosteus: 93%
Ilmanpaine: 1013 hPa
Pilvisyys: Pilvistä
Näkyvyys: Enemmän kuin 10 km
Pilvitiedot: Pilvistä 213 m
EFPO 241920Z AUTO 19007KT 9999 OVC007 08/07 Q1013
EFUT - Utti (Fin-Afb), Finland
Etäisyys asemalta: Kaakko 180 km
Päivitetty: 24.10.2021 22:20
Heikkoa jäätävää sadetta, Tihkusadetta, Lumisadetta, Pilvistä  
Heikkoa jäätävää sadetta, Tihkusadetta, Lumisadetta, Pilvistä  
   Tuuli: Eteläkaakko 4.1 m/s
Tuuli: Eteläkaakko 4.1 m/s
Lämpötila: 0°C
Tuulen hyytävyys: -4°C
Kastepiste: 0°C
Kosteus: 100%
Ilmanpaine: 1020 hPa
Pilvisyys: Pilvistä
Näkyvyys: 5 km
Pilvitiedot: Pilvistä 122 m
EFUT 241920Z AUTO 16008KT 4500 -FZDZSN OVC004 00/M00 Q1020
EFVA - Vaasa, Finland
Etäisyys asemalta: Luode 180 km
Päivitetty: 24.10.2021 22:20
Pilvistä  
Pilvistä  
   Tuuli: Eteläkaakko 4.1 m/s
Tuuli: Eteläkaakko 4.1 m/s
Lämpötila: 4°C
Tuulen hyytävyys: 1°C
Kastepiste: 3°C
Kosteus: 93%
Ilmanpaine: 1011 hPa
Pilvisyys: Pilvistä
Näkyvyys: Enemmän kuin 10 km
Pilvitiedot: Pilvistä 122 m
EFVA 241920Z AUTO 15008KT 9999 OVC004 04/03 Q1011
EFHK - Helsinki/Vantaa, Finland
Etäisyys asemalta: Etelä 191 km
Päivitetty: 24.10.2021 22:20
Heikkoa sadetta, Melkein pilvistä  
Heikkoa sadetta, Melkein pilvistä  
   Tuuli: Etelä 7.2 m/s
Tuuli: Etelä 7.2 m/s
Lämpötila: 6°C
Tuulen hyytävyys: 2°C
Kastepiste: 5°C
Kosteus: 93%
Ilmanpaine: 1019 hPa
Pilvisyys: Melkein pilvistä
Näkyvyys: Enemmän kuin 10 km
Pilvitiedot: Puolipilvistä 244 m,
Melkein pilvistä 335 m
EFHK 241920Z 19014KT 9999 -RA SCT008 BKN011 06/05 Q1019 TEMPO 7000 BKN008

Alkuperäinen skripti  Saratoga-weather.org Sovitettu myös templatelle  Weerstation Leuven

Laitteet joita käytämme:

Sääasema
Davis VP2

Sääasemaohjelma
Cumulus

Sääaseman palvelin
HP ProBook 6460b

Palveluntarjoaja
Radicenter

Davis VP2

Cumulus

HP ProBook 6460b

Radicenter




Flag Counter Cumulus Top Weather Sites